Time;durP1;ratioP1;P1;durP2;ratioP2;P2;SDS_P1;SDS_P2;PMS_P1;PMS_P2;Temp;Humidity;BMP_temperature;BMP_pressure;BME280_temperature;BME280_humidity;BME280_pressure;Samples;Min_cycle;Max_cycle;Signal;HPM_P1;HPM_P2
2023/06/16 00:02:17;;;;;;;4.97;3.37;;;;;;;-145.18;100.00;46562.72;5084272;28;20027;-61
2023/06/16 00:04:43;;;;;;;7.30;2.97;;;;;;;-145.18;100.00;46541.25;5070653;28;20061;-61
2023/06/16 00:07:12;;;;;;;8.10;3.23;;;;;;;-145.18;100.00;46545.16;5093675;28;20317;-61
2023/06/16 00:09:38;;;;;;;7.53;3.30;;;;;;;-145.18;100.00;46545.16;5083710;28;20480;-61
2023/06/16 00:12:04;;;;;;;5.27;3.00;;;;;;;-145.18;100.00;46551.00;5093616;28;20028;-61
2023/06/16 00:14:30;;;;;;;5.80;3.50;;;;;;;-145.18;100.00;46537.34;5087827;28;20056;-61
2023/06/16 00:16:57;;;;;;;7.53;3.17;;;;;;;-145.18;100.00;46560.78;5087323;28;20428;-61
2023/06/16 00:19:27;;;;;;;4.87;2.73;;;;;;;-145.18;100.00;46586.16;5109881;28;20062;-61
2023/06/16 00:21:52;;;;;;;5.63;3.47;;;;;;;-145.18;100.00;46570.53;5093360;28;20438;-61
2023/06/16 00:24:18;;;;;;;8.20;3.30;;;;;;;-145.18;100.00;46568.59;5080169;28;20024;-61
2023/06/16 00:26:43;;;;;;;5.33;2.97;;;;;;;-145.18;100.00;46623.28;5060311;28;20044;-60
2023/06/16 00:29:09;;;;;;;5.03;3.00;;;;;;;-145.18;100.00;46646.72;5073543;28;20067;-61
2023/06/16 00:31:35;;;;;;;6.37;2.67;;;;;;;-145.18;100.00;46609.59;5073762;28;20044;-60
2023/06/16 00:34:01;;;;;;;7.87;2.90;;;;;;;-145.18;100.00;46625.22;5069190;28;20059;-61
2023/06/16 00:36:27;;;;;;;8.17;2.97;;;;;;;-145.18;100.00;46644.78;5092497;28;20081;-61
2023/06/16 00:38:52;;;;;;;6.47;2.93;;;;;;;-145.18;100.00;46617.41;5086773;28;20066;-60
2023/06/16 00:41:18;;;;;;;5.03;2.93;;;;;;;-145.18;100.00;46531.47;5049169;28;20028;-61
2023/06/16 00:43:43;;;;;;;7.17;3.57;;;;;;;-145.18;100.00;46564.69;5079798;28;20044;-61
2023/06/16 00:46:12;;;;;;;6.63;3.57;;;;;;;-145.18;100.00;46560.78;5108161;28;20070;-61
2023/06/16 00:48:37;;;;;;;6.63;3.67;;;;;;;-145.18;100.00;46562.72;5090748;28;20024;-61
2023/06/16 00:51:03;;;;;;;5.87;3.40;;;;;;;-145.18;100.00;46560.78;5093263;28;20039;-61
2023/06/16 00:53:31;;;;;;;7.27;3.80;;;;;;;-145.18;100.00;46570.53;5092453;28;20047;-60
2023/06/16 00:55:58;;;;;;;6.47;2.80;;;;;;;-145.18;100.00;46560.78;5086058;28;20033;-61
2023/06/16 00:58:24;;;;;;;4.90;3.00;;;;;;;-145.18;100.00;46572.50;5086483;28;20479;-58
2023/06/16 01:00:49;;;;;;;5.43;3.20;;;;;;;-145.18;100.00;46562.72;5075885;28;20111;-58
2023/06/16 01:03:16;;;;;;;4.93;3.10;;;;;;;-145.18;100.00;46578.34;5068541;28;20135;-58
2023/06/16 01:05:42;;;;;;;5.87;3.13;;;;;;;-145.18;100.00;46593.97;5093102;28;20036;-58
2023/06/16 01:08:13;;;;;;;7.60;3.13;;;;;;;-145.18;100.00;46623.28;5078953;28;20031;-58
2023/06/16 01:10:53;;;;;;;6.93;2.83;;;;;;;-145.18;100.00;46586.16;5081468;28;20388;-58
2023/06/16 01:13:45;;;;;;;6.13;3.00;;;;;;;-145.18;100.00;46570.53;5075520;28;20028;-58
2023/06/16 01:16:12;;;;;;;6.17;3.43;;;;;;;-145.18;100.00;46560.78;5072433;28;20044;-58
2023/06/16 01:18:43;;;;;;;4.57;2.57;;;;;;;-145.18;100.00;46531.47;5072357;28;20406;-58
2023/06/16 01:21:37;;;;;;;4.63;3.03;;;;;;;-145.18;100.00;46533.44;5073271;28;20082;-58
2023/06/16 01:24:14;;;;;;;6.13;3.30;;;;;;;-145.18;100.00;46560.78;5081099;28;20487;-58
2023/06/16 01:26:46;;;;;;;4.93;3.00;;;;;;;-145.18;100.00;46558.81;5072987;28;20032;-58
2023/06/16 01:29:13;;;;;;;4.73;3.60;;;;;;;-145.18;100.00;46541.25;5072404;28;20028;-58
2023/06/16 01:31:41;;;;;;;6.50;4.00;;;;;;;-145.18;100.00;46551.00;5066441;28;20114;-58
2023/06/16 01:34:08;;;;;;;7.17;4.07;;;;;;;-145.18;100.00;46535.38;5062135;28;20078;-57
2023/06/16 01:36:36;;;;;;;7.27;3.87;;;;;;;-145.18;100.00;46527.56;5058095;28;21438;-58
2023/06/16 01:39:03;;;;;;;6.10;3.80;;;;;;;-145.18;100.00;46521.72;5085064;28;20089;-58
2023/06/16 01:41:29;;;;;;;7.67;3.93;;;;;;;-145.18;100.00;46519.75;5089192;28;20039;-58
2023/06/16 01:43:56;;;;;;;11.50;4.40;;;;;;;-145.18;100.00;46508.03;5085746;28;20026;-58
2023/06/16 01:46:23;;;;;;;4.80;3.40;;;;;;;-145.18;100.00;46517.81;5083969;28;20567;-58
2023/06/16 01:48:49;;;;;;;4.90;3.57;;;;;;;-145.18;100.00;46519.75;5084117;28;20028;-58
2023/06/16 01:51:15;;;;;;;5.00;3.90;;;;;;;-145.18;100.00;46523.66;5091328;28;20035;-58
2023/06/16 01:53:40;;;;;;;9.20;4.27;;;;;;;-145.18;100.00;46515.84;5089959;28;20070;-58
2023/06/16 01:56:06;;;;;;;4.80;3.37;;;;;;;-145.18;100.00;46513.91;5066331;28;20431;-58
2023/06/16 01:58:32;;;;;;;6.53;4.20;;;;;;;-145.18;100.00;46521.72;5084448;28;20032;-58
2023/06/16 02:01:20;;;;;;;10.30;4.20;;;;;;;-145.18;100.00;46504.13;5087702;28;20028;-58
2023/06/16 02:03:54;;;;;;;6.13;3.80;;;;;;;-145.18;100.00;46521.72;5087323;28;20537;-58
2023/06/16 02:06:42;;;;;;;5.93;3.80;;;;;;;-145.18;100.00;46521.72;5091102;28;20036;-58
2023/06/16 02:09:11;;;;;;;5.70;4.20;;;;;;;-145.18;100.00;46519.75;5074718;28;20032;-60
2023/06/16 02:11:37;;;;;;;5.77;3.70;;;;;;;-145.18;100.00;46517.81;5073640;28;20036;-60
2023/06/16 02:14:04;;;;;;;11.83;4.10;;;;;;;-145.18;100.00;46519.75;5079825;28;20044;-60
2023/06/16 02:16:35;;;;;;;8.63;3.80;;;;;;;-145.18;100.00;46519.75;5086200;28;20070;-60
2023/06/16 02:19:01;;;;;;;6.20;3.60;;;;;;;-145.18;100.00;46519.75;5085609;28;20498;-60
2023/06/16 02:21:26;;;;;;;9.77;4.23;;;;;;;-145.18;100.00;46515.84;5090821;28;20032;-60
2023/06/16 02:23:52;;;;;;;6.67;3.90;;;;;;;-145.18;100.00;46523.66;5091768;28;20038;-61
2023/06/16 02:26:17;;;;;;;6.73;4.00;;;;;;;-145.18;100.00;46517.81;5060706;28;20502;-61
2023/06/16 02:28:42;;;;;;;6.87;4.00;;;;;;;-145.18;100.00;46517.81;5071800;28;20036;-60
2023/06/16 02:31:08;;;;;;;6.13;4.20;;;;;;;-145.18;100.00;46525.63;5088092;28;20105;-60
2023/06/16 02:33:34;;;;;;;5.03;3.57;;;;;;;-145.18;100.00;46519.75;5075668;28;20075;-60
2023/06/16 02:35:59;;;;;;;5.83;3.87;;;;;;;-145.18;100.00;46517.81;5075649;28;20028;-60
2023/06/16 02:38:25;;;;;;;5.13;3.57;;;;;;;-145.18;100.00;46510.00;5075672;28;20085;-60
2023/06/16 02:40:50;;;;;;;6.23;3.90;;;;;;;-145.18;100.00;46508.03;5089276;28;20032;-60
2023/06/16 02:43:16;;;;;;;8.53;3.90;;;;;;;-145.18;100.00;46517.81;5079536;28;20024;-60
2023/06/16 02:45:41;;;;;;;5.43;3.67;;;;;;;-145.18;100.00;46508.03;5095626;28;20426;-60
2023/06/16 02:48:06;;;;;;;10.13;4.00;;;;;;;-145.18;100.00;46527.56;5079754;28;20036;-60
2023/06/16 02:50:32;;;;;;;6.53;3.90;;;;;;;-145.18;100.00;46527.56;5075375;28;20166;-61
2023/06/16 02:52:58;;;;;;;6.17;3.60;;;;;;;-145.18;100.00;46523.66;5074241;28;20103;-60
2023/06/16 02:55:24;;;;;;;5.67;3.60;;;;;;;-145.18;100.00;46517.81;5075775;28;20028;-60
2023/06/16 02:57:50;;;;;;;8.47;4.03;;;;;;;-145.18;100.00;46533.44;5075504;28;21266;-60
2023/06/16 03:00:16;;;;;;;6.17;3.07;;;;;;;-145.18;100.00;46513.91;5084975;28;20067;-60
2023/06/16 03:02:41;;;;;;;5.97;3.57;;;;;;;-145.18;100.00;46525.63;5059398;28;20090;-60
2023/06/16 03:05:07;;;;;;;8.40;3.93;;;;;;;-145.18;100.00;46517.81;5075448;28;20415;-60
2023/06/16 03:07:36;;;;;;;5.00;3.27;;;;;;;-145.18;100.00;46519.75;5075583;28;20755;-60
2023/06/16 03:10:03;;;;;;;4.93;3.17;;;;;;;-145.18;100.00;46527.56;5075190;28;20036;-60
2023/06/16 03:12:28;;;;;;;6.63;3.60;;;;;;;-145.18;100.00;46525.63;5070952;28;20056;-60
2023/06/16 03:14:54;;;;;;;7.20;3.57;;;;;;;-145.18;100.00;46539.28;5074459;28;20839;-60
2023/06/16 03:17:20;;;;;;;8.23;3.77;;;;;;;-145.18;100.00;46535.38;5078481;28;20032;-60
2023/06/16 03:19:49;;;;;;;8.40;3.80;;;;;;;-145.18;100.00;46552.97;5068083;28;20396;-59
2023/06/16 03:22:15;;;;;;;7.90;3.60;;;;;;;-145.18;100.00;46535.38;5075167;28;20036;-59
2023/06/16 03:24:43;;;;;;;7.63;3.67;;;;;;;-145.18;100.00;46541.25;5075228;28;20403;-58
2023/06/16 03:27:09;;;;;;;10.23;3.67;;;;;;;-145.18;100.00;46551.00;5058017;28;20086;-58
2023/06/16 03:29:35;;;;;;;6.07;3.40;;;;;;;-145.18;100.00;46527.56;5075540;28;20036;-58
2023/06/16 03:32:01;;;;;;;5.40;3.30;;;;;;;-145.18;100.00;46533.44;5077854;28;20199;-58
2023/06/16 03:34:29;;;;;;;5.70;3.43;;;;;;;-145.18;100.00;46537.34;5075020;28;20136;-59
2023/06/16 03:36:55;;;;;;;6.50;3.47;;;;;;;-145.18;100.00;46543.19;5058136;28;20491;-58
2023/06/16 03:39:20;;;;;;;6.63;4.30;;;;;;;-145.18;100.00;46523.66;5075357;28;20056;-58
2023/06/16 03:41:46;;;;;;;6.60;3.80;;;;;;;-145.18;100.00;46547.09;5075118;28;20059;-58
2023/06/16 03:44:11;;;;;;;6.47;3.50;;;;;;;-145.18;100.00;46545.16;5075253;28;20544;-58
2023/06/16 03:46:36;;;;;;;6.57;4.00;;;;;;;-145.18;100.00;46545.16;5074552;28;20032;-58
2023/06/16 03:49:02;;;;;;;7.27;3.93;;;;;;;-145.18;100.00;46551.00;5056971;28;20036;-58
2023/06/16 03:51:27;;;;;;;7.87;3.77;;;;;;;-145.18;100.00;46556.88;5075877;28;20038;-59
2023/06/16 03:53:53;;;;;;;5.80;3.57;;;;;;;-145.18;100.00;46556.88;5075067;28;20040;-58
2023/06/16 03:56:18;;;;;;;5.60;3.70;;;;;;;-145.18;100.00;46543.19;5075853;28;20085;-58
2023/06/16 03:58:44;;;;;;;6.03;3.77;;;;;;;-145.18;100.00;46562.72;5074675;28;20028;-58
2023/06/16 04:01:10;;;;;;;7.27;3.80;;;;;;;-145.18;100.00;46543.19;5074855;28;20115;-58
2023/06/16 04:03:36;;;;;;;4.63;3.67;;;;;;;-145.18;100.00;46547.09;5074823;28;20055;-58
2023/06/16 04:06:02;;;;;;;10.40;4.47;;;;;;;-145.18;100.00;46556.88;5090183;28;20070;-58
2023/06/16 04:08:27;;;;;;;6.97;3.37;;;;;;;-145.18;100.00;46566.63;5074528;28;20028;-57
2023/06/16 04:10:57;;;;;;;8.83;3.30;;;;;;;-145.18;100.00;46574.44;5075285;28;20040;-57
2023/06/16 04:13:23;;;;;;;6.23;3.80;;;;;;;-145.18;100.00;46578.34;5056673;28;20043;-58
2023/06/16 04:15:49;;;;;;;7.17;3.60;;;;;;;-145.18;100.00;46566.63;5071807;28;20087;-58
2023/06/16 04:18:15;;;;;;;7.80;3.87;;;;;;;-145.18;100.00;46564.69;5073950;28;20056;-58
2023/06/16 04:20:40;;;;;;;6.20;3.77;;;;;;;-145.18;100.00;46576.41;5073259;28;20394;-58
2023/06/16 04:23:09;;;;;;;7.03;3.67;;;;;;;-145.18;100.00;46570.53;5102066;28;20032;-58
2023/06/16 04:25:35;;;;;;;6.13;3.30;;;;;;;-145.18;100.00;46554.91;5058038;28;20391;-58
2023/06/16 04:28:02;;;;;;;8.83;3.50;;;;;;;-145.18;100.00;46580.31;5079404;28;20039;-58
2023/06/16 04:30:30;;;;;;;6.13;3.93;;;;;;;-145.18;100.00;46572.50;5084471;28;20044;-58
2023/06/16 04:32:59;;;;;;;4.90;3.13;;;;;;;-145.18;100.00;46574.44;5087315;28;20020;-58
2023/06/16 04:35:27;;;;;;;7.83;3.80;;;;;;;-145.18;100.00;46562.72;5074493;28;20491;-58
2023/06/16 04:37:57;;;;;;;7.23;3.93;;;;;;;-145.18;100.00;46566.63;5078205;28;20773;-59
2023/06/16 04:40:26;;;;;;;6.77;3.70;;;;;;;-145.18;100.00;46560.78;5065619;28;20033;-58
2023/06/16 04:42:52;;;;;;;7.47;3.60;;;;;;;-145.18;100.00;46576.41;5068524;28;20392;-58
2023/06/16 04:45:20;;;;;;;4.70;3.93;;;;;;;-145.18;100.00;46578.34;5073763;28;20028;-58
2023/06/16 04:47:46;;;;;;;6.97;3.93;;;;;;;-145.18;100.00;46541.25;5056032;28;20373;-58
2023/06/16 04:50:12;;;;;;;9.43;3.73;;;;;;;-145.18;100.00;46560.78;5073617;28;20486;-58
2023/06/16 04:52:38;;;;;;;9.07;3.97;;;;;;;-145.18;100.00;46560.78;5074060;28;20522;-58
2023/06/16 04:55:05;;;;;;;4.73;3.53;;;;;;;-145.18;100.00;46574.44;5070772;28;20031;-59
2023/06/16 04:57:34;;;;;;;5.57;3.63;;;;;;;-145.18;100.00;46566.63;5041288;28;20033;-58
2023/06/16 05:00:00;;;;;;;5.73;3.87;;;;;;;-145.18;100.00;46576.41;5075445;28;20041;-58
2023/06/16 05:02:26;;;;;;;6.13;3.77;;;;;;;-145.18;100.00;46580.31;5057955;28;20039;-58
2023/06/16 05:04:51;;;;;;;6.33;4.20;;;;;;;-145.18;100.00;46574.44;5075148;28;20033;-58
2023/06/16 05:07:17;;;;;;;5.67;3.60;;;;;;;-145.18;100.00;46554.91;5075691;28;20032;-58
2023/06/16 05:09:42;;;;;;;6.77;4.37;;;;;;;-145.18;100.00;46576.41;5076060;28;20032;-58
2023/06/16 05:12:09;;;;;;;5.40;3.80;;;;;;;-145.18;100.00;46558.81;5078422;28;20471;-59
2023/06/16 05:14:34;;;;;;;7.17;3.77;;;;;;;-145.18;100.00;46547.09;5075657;28;20041;-58
2023/06/16 05:17:00;;;;;;;4.73;3.50;;;;;;;-145.18;100.00;46566.63;5075807;28;20033;-58
2023/06/16 05:19:26;;;;;;;7.53;3.97;;;;;;;-145.18;100.00;46562.72;5082859;28;20085;-56
2023/06/16 05:21:52;;;;;;;7.83;3.97;;;;;;;-145.18;100.00;46556.88;5075613;28;20032;-58
2023/06/16 05:24:17;;;;;;;5.97;3.60;;;;;;;-145.18;100.00;46562.72;5089322;28;20024;-58
2023/06/16 05:26:42;;;;;;;5.77;4.33;;;;;;;-145.18;100.00;46613.50;5059530;28;20476;-58
2023/06/16 05:29:08;;;;;;;6.77;4.23;;;;;;;-145.18;100.00;46707.28;5080155;28;20043;-58
2023/06/16 05:31:34;;;;;;;5.57;3.77;;;;;;;-145.18;100.00;46717.03;5075927;28;20043;-59
2023/06/16 05:34:01;;;;;;;7.60;4.23;;;;;;;-145.18;100.00;46621.31;5091065;28;20032;-58
2023/06/16 05:36:28;;;;;;;6.10;3.97;;;;;;;-145.18;100.00;46570.53;5081580;28;20039;-58
2023/06/16 05:38:54;;;;;;;9.43;3.87;;;;;;;-145.18;100.00;46631.09;5085048;28;20024;-59
2023/06/16 05:41:23;;;;;;;12.00;4.50;;;;;;;-145.18;100.00;46738.53;5064281;28;20411;-61
2023/06/16 05:43:51;;;;;;;6.87;3.97;;;;;;;-145.18;100.00;46976.84;5073515;28;20032;-60
2023/06/16 05:46:17;;;;;;;9.20;4.00;;;;;;;-145.18;100.00;47109.69;5077977;28;20227;-60
2023/06/16 05:48:43;;;;;;;7.07;4.37;;;;;;;-145.18;100.00;47148.75;5073411;28;20124;-61
2023/06/16 05:51:08;;;;;;;7.33;4.23;;;;;;;-145.18;100.00;47160.47;5081392;28;20092;-60
2023/06/16 05:53:34;;;;;;;5.83;4.00;;;;;;;-145.18;100.00;47195.66;5077173;28;20036;-61
2023/06/16 05:55:59;;;;;;;9.07;4.33;;;;;;;-145.18;100.00;47189.78;5053758;28;20036;-60
2023/06/16 05:58:24;;;;;;;6.17;4.10;;;;;;;-145.18;100.00;47176.09;5082096;28;20046;-61
2023/06/16 06:00:50;;;;;;;7.77;4.13;;;;;;;-145.18;100.00;47203.47;5077494;28;20039;-61
2023/06/16 06:03:15;;;;;;;8.03;3.80;;;;;;;-145.18;100.00;47183.94;5072572;28;20111;-60
2023/06/16 06:05:41;;;;;;;9.20;4.50;;;;;;;-145.18;100.00;47178.06;5072597;28;20040;-61
2023/06/16 06:08:07;;;;;;;6.93;4.50;;;;;;;-145.18;100.00;47152.66;5067133;28;20123;-61
2023/06/16 06:10:32;;;;;;;6.53;4.30;;;;;;;-145.18;100.00;47156.56;5055203;28;20533;-61
2023/06/16 06:13:02;;;;;;;7.17;4.17;;;;;;;-145.18;100.00;47129.22;5088361;28;20044;-61
2023/06/16 06:15:28;;;;;;;8.00;4.40;;;;;;;-145.18;100.00;47144.84;5071145;28;20056;-61
2023/06/16 06:17:54;;;;;;;6.00;4.27;;;;;;;-145.18;100.00;47160.47;5072212;28;20082;-61
2023/06/16 06:20:19;;;;;;;7.60;4.50;;;;;;;-145.18;100.00;47139.00;5070995;28;20045;-60
2023/06/16 06:22:44;;;;;;;7.93;4.37;;;;;;;-145.18;100.00;47131.19;5071288;28;20055;-61
2023/06/16 06:25:10;;;;;;;7.20;4.57;;;;;;;-145.18;100.00;47125.31;5048754;28;20038;-61
2023/06/16 06:27:36;;;;;;;9.37;4.20;;;;;;;-145.18;100.00;47154.63;5073006;28;20112;-61
2023/06/16 06:30:01;;;;;;;11.80;4.47;;;;;;;-145.18;100.00;47164.38;5074712;28;20036;-61
2023/06/16 06:32:27;;;;;;;10.23;4.53;;;;;;;-145.18;100.00;47178.06;5071146;28;20028;-60
2023/06/16 06:34:52;;;;;;;5.87;4.03;;;;;;;-145.18;100.00;47140.94;5075137;28;20086;-61
2023/06/16 06:37:18;;;;;;;9.20;4.63;;;;;;;-145.18;100.00;47142.91;5064470;28;20498;-61
2023/06/16 06:39:45;;;;;;;7.17;4.50;;;;;;;-145.18;100.00;47139.00;5081454;28;20388;-61
2023/06/16 06:42:12;;;;;;;6.23;4.37;;;;;;;-145.18;100.00;47111.66;5075552;28;20055;-61
2023/06/16 06:44:37;;;;;;;7.20;4.53;;;;;;;-145.18;100.00;47090.16;5061117;28;20028;-61
2023/06/16 06:47:03;;;;;;;8.80;4.80;;;;;;;-145.18;100.00;47094.06;5072594;28;20060;-61
2023/06/16 06:49:28;;;;;;;6.97;4.13;;;;;;;-145.18;100.00;47096.00;5078836;28;20729;-58
2023/06/16 06:51:54;;;;;;;8.40;4.27;;;;;;;-145.18;100.00;47090.16;5074551;28;20040;-59
2023/06/16 06:54:19;;;;;;;8.00;4.33;;;;;;;-145.18;100.00;47082.34;5078134;28;20042;-59
2023/06/16 06:56:44;;;;;;;6.50;4.30;;;;;;;-145.18;100.00;47084.28;5063823;28;20059;-58
2023/06/16 06:59:10;;;;;;;5.30;4.10;;;;;;;-145.18;100.00;47074.53;5080368;28;20487;-58
2023/06/16 07:01:35;;;;;;;6.40;4.70;;;;;;;-145.18;100.00;47086.25;5074906;28;20033;-58
2023/06/16 07:04:01;;;;;;;7.73;4.20;;;;;;;-145.18;100.00;47086.25;5043377;28;20104;-58
2023/06/16 07:06:26;;;;;;;7.20;4.60;;;;;;;-145.18;100.00;47062.81;5074823;28;20075;-58
2023/06/16 07:08:52;;;;;;;7.20;4.30;;;;;;;-145.18;100.00;47068.66;5077788;28;20036;-59
2023/06/16 07:11:17;;;;;;;7.43;4.30;;;;;;;-145.18;100.00;47066.72;5074622;28;20051;-58
2023/06/16 07:13:43;;;;;;;6.07;3.60;;;;;;;-145.18;100.00;47055.00;5077329;28;20430;-58
2023/06/16 07:16:08;;;;;;;6.27;3.83;;;;;;;-145.18;100.00;47051.09;5075954;28;20037;-59
2023/06/16 07:18:34;;;;;;;5.43;3.70;;;;;;;-145.18;100.00;47035.44;5082179;28;20037;-59
2023/06/16 07:20:59;;;;;;;5.53;3.47;;;;;;;-145.18;100.00;47047.19;5075134;28;20028;-58
2023/06/16 07:23:27;;;;;;;5.23;3.77;;;;;;;-145.18;100.00;47043.28;5074742;28;20040;-59
2023/06/16 07:25:53;;;;;;;8.33;3.67;;;;;;;-145.18;100.00;47047.19;5075509;28;20037;-58
2023/06/16 07:28:19;;;;;;;5.50;3.27;;;;;;;-145.18;100.00;47051.09;5075409;28;20134;-58
2023/06/16 07:30:44;;;;;;;5.10;3.73;;;;;;;-145.18;100.00;47039.34;5075332;28;20056;-58
2023/06/16 07:33:10;;;;;;;7.17;3.77;;;;;;;-145.18;100.00;47039.34;5074859;28;20085;-58
2023/06/16 07:35:35;;;;;;;5.10;3.70;;;;;;;-145.18;100.00;47037.41;5075352;28;20116;-59
2023/06/16 07:38:00;;;;;;;7.13;3.47;;;;;;;-145.18;100.00;47031.53;5075298;28;20407;-58
2023/06/16 07:40:26;;;;;;;6.13;3.50;;;;;;;-145.18;100.00;47037.41;5074762;28;20097;-58
2023/06/16 07:42:51;;;;;;;4.50;3.33;;;;;;;-145.18;100.00;47029.59;5083208;28;20395;-58
2023/06/16 07:45:17;;;;;;;4.80;3.37;;;;;;;-145.18;100.00;47025.69;5058733;28;20463;-58
2023/06/16 07:47:45;;;;;;;6.23;3.30;;;;;;;-145.18;100.00;47013.97;5081923;28;20032;-58
2023/06/16 07:50:12;;;;;;;4.23;3.30;;;;;;;-145.18;100.00;47035.44;5075420;28;20476;-58
2023/06/16 07:52:38;;;;;;;4.73;3.20;;;;;;;-145.18;100.00;47015.91;5094263;28;20062;-59
2023/06/16 07:55:04;;;;;;;5.90;3.07;;;;;;;-145.18;100.00;47008.09;5094000;28;20048;-59
2023/06/16 07:57:29;;;;;;;5.30;3.60;;;;;;;-145.18;100.00;47013.97;5084221;28;20115;-58
2023/06/16 07:59:55;;;;;;;8.57;3.93;;;;;;;-145.18;100.00;47015.91;5087350;28;20119;-59
2023/06/16 08:02:20;;;;;;;5.37;3.27;;;;;;;-145.18;100.00;47006.16;5078581;28;20067;-58
2023/06/16 08:04:45;;;;;;;4.10;2.93;;;;;;;-145.18;100.00;47015.91;5093494;28;20047;-58
2023/06/16 08:07:11;;;;;;;5.13;3.70;;;;;;;-145.18;100.00;47008.09;5087349;28;20024;-58
2023/06/16 08:09:36;;;;;;;5.67;3.60;;;;;;;-145.18;100.00;46994.44;5074053;28;20441;-58
2023/06/16 08:12:02;;;;;;;5.27;3.03;;;;;;;-145.18;100.00;46992.47;5074353;28;20025;-58
2023/06/16 08:14:30;;;;;;;5.00;3.20;;;;;;;-145.18;100.00;46996.38;5073646;28;20635;-59
2023/06/16 08:16:55;;;;;;;3.63;2.93;;;;;;;-145.18;100.00;46990.53;5097817;28;20028;-58
2023/06/16 08:19:21;;;;;;;6.17;3.70;;;;;;;-145.18;100.00;46988.56;5074256;28;20373;-58
2023/06/16 08:21:46;;;;;;;4.43;3.33;;;;;;;-145.18;100.00;46990.53;5056393;28;20494;-59
2023/06/16 08:24:11;;;;;;;4.87;3.50;;;;;;;-145.18;100.00;46980.75;5074166;28;20031;-58
2023/06/16 08:26:37;;;;;;;5.30;3.10;;;;;;;-145.18;100.00;46978.81;5074099;28;20044;-58
2023/06/16 08:29:03;;;;;;;5.00;3.60;;;;;;;-145.18;100.00;46988.56;5073852;28;20434;-59
2023/06/16 08:31:29;;;;;;;6.07;3.43;;;;;;;-145.18;100.00;46982.72;5072447;28;20051;-59
2023/06/16 08:33:55;;;;;;;3.83;3.07;;;;;;;-145.18;100.00;46986.63;5054870;28;20033;-58
2023/06/16 08:36:23;;;;;;;3.87;2.93;;;;;;;-145.18;100.00;46969.03;5072978;28;20510;-58
2023/06/16 08:38:48;;;;;;;3.70;2.90;;;;;;;-145.18;100.00;46976.84;5073877;28;20032;-58
2023/06/16 08:41:16;;;;;;;7.80;3.03;;;;;;;-145.18;100.00;46978.81;5074601;28;20376;-58
2023/06/16 08:43:43;;;;;;;4.13;2.90;;;;;;;-145.18;100.00;46974.91;5073866;28;20036;-58
2023/06/16 08:46:08;;;;;;;5.80;3.43;;;;;;;-145.18;100.00;46969.03;5075096;28;20464;-58
2023/06/16 08:48:37;;;;;;;6.53;3.97;;;;;;;-145.18;100.00;46959.25;5089552;28;20032;-58
2023/06/16 08:51:03;;;;;;;4.40;2.77;;;;;;;-145.18;97.00;46959.25;5074810;28;20116;-59
2023/06/16 08:53:33;;;;;;;4.67;3.07;;;;;;;-145.18;100.00;46974.91;5073351;28;20488;-58
2023/06/16 08:56:03;;;;;;;4.20;2.80;;;;;;;-145.18;76.80;46951.44;5074811;28;20047;-58
2023/06/16 08:58:33;;;;;;;3.63;2.77;;;;;;;-145.18;68.01;46957.31;5076812;28;20388;-58
2023/06/16 09:01:02;;;;;;;5.50;2.80;;;;;;;-145.18;77.00;46949.50;5079779;28;20028;-58
2023/06/16 09:03:32;;;;;;;4.33;2.90;;;;;;;-145.18;85.60;46965.13;5082692;28;20064;-58
2023/06/16 09:06:01;;;;;;;3.67;3.13;;;;;;;-145.18;80.05;46953.41;5076017;28;20033;-58
2023/06/16 09:08:27;;;;;;;4.80;3.07;;;;;;;-145.18;77.02;46961.22;5083246;28;20069;-58
2023/06/16 09:10:55;;;;;;;4.00;3.03;;;;;;;-145.18;100.00;46949.50;5093597;28;20028;-58
2023/06/16 09:13:21;;;;;;;4.35;3.10;;;;;;;-145.18;96.98;46943.63;5077040;28;20032;-58
2023/06/16 09:15:48;;;;;;;3.07;2.50;;;;;;;-145.18;74.41;46947.53;5075771;28;20066;-58
2023/06/16 09:18:15;;;;;;;4.23;3.37;;;;;;;-145.18;80.47;46953.41;5081553;28;20028;-58
2023/06/16 09:20:41;;;;;;;4.13;3.50;;;;;;;-145.18;97.40;46959.25;5090362;28;20495;-58
2023/06/16 09:23:08;;;;;;;4.40;3.27;;;;;;;-145.18;95.79;46957.31;5091543;28;20035;-58
2023/06/16 09:25:35;;;;;;;4.03;3.07;;;;;;;-145.18;84.15;46957.31;5089404;28;20063;-58
2023/06/16 09:28:09;;;;;;;5.20;3.27;;;;;;;-145.18;93.15;46949.50;5080443;28;20107;-58
2023/06/16 09:30:35;;;;;;;5.60;3.10;;;;;;;-145.18;99.34;46949.50;5073589;28;20086;-58
2023/06/16 09:33:01;;;;;;;6.53;2.87;;;;;;;-145.18;84.19;46949.50;5072849;28;20025;-58
2023/06/16 09:35:29;;;;;;;5.73;4.17;;;;;;;-145.18;93.64;46951.44;5054709;28;20392;-58
2023/06/16 09:37:57;;;;;;;4.40;2.90;;;;;;;-145.18;94.54;46933.88;5071703;28;20108;-57
2023/06/16 09:40:28;;;;;;;8.57;3.42;;;;;;;-145.18;98.30;46937.78;5071561;28;20032;-58
2023/06/16 09:42:57;;;;;;;5.18;3.15;;;;;;;-145.18;83.83;46924.09;5071354;28;20086;-58
2023/06/16 09:45:28;;;;;;;4.63;3.22;;;;;;;-145.18;83.57;46929.97;5090838;28;20476;-59
2023/06/16 09:47:53;;;;;;;4.75;3.20;;;;;;;-145.18;79.28;46920.19;5077140;28;20024;-59
2023/06/16 09:50:25;;;;;;;3.70;2.88;;;;;;;-145.18;96.79;46924.09;5076221;28;20032;-59
2023/06/16 09:52:51;;;;;;;8.70;3.55;;;;;;;-145.18;69.28;46939.72;5076601;28;20039;-59
2023/06/16 09:55:17;;;;;;;8.00;3.40;;;;;;;-145.18;74.09;46937.78;5078566;28;20574;-59
2023/06/16 09:57:44;;;;;;;4.72;3.17;;;;;;;-145.18;77.65;46949.50;5096926;28;20040;-58
2023/06/16 10:00:15;;;;;;;5.97;2.75;;;;;;;-145.18;70.64;46933.88;5075015;28;20969;-58
2023/06/16 10:02:43;;;;;;;6.25;3.28;;;;;;;-145.18;74.69;46933.88;5075851;28;20032;-58
2023/06/16 10:05:10;;;;;;;4.40;3.20;;;;;;;-145.18;76.87;46922.16;5080308;28;20062;-58
2023/06/16 10:07:39;;;;;;;3.57;2.90;;;;;;;-145.18;67.09;46928.00;5072805;28;20181;-58
2023/06/16 10:10:10;;;;;;;5.32;3.33;;;;;;;-145.18;60.98;46937.78;5080262;28;20024;-58
2023/06/16 10:12:36;;;;;;;4.43;2.33;;;;;;;-145.18;60.35;46929.97;5076431;28;20025;-58
2023/06/16 10:15:09;;;;;;;6.07;3.13;;;;;;;-145.18;68.41;46914.34;5066574;28;20044;-58
2023/06/16 10:17:37;;;;;;;5.45;3.08;;;;;;;-145.18;78.20;46922.16;5074576;28;20031;-59
2023/06/16 10:20:09;;;;;;;8.02;3.72;;;;;;;-145.18;72.63;46914.34;5083847;28;20436;-59
2023/06/16 10:22:34;;;;;;;4.18;3.03;;;;;;;-145.18;64.39;46908.47;5074418;28;20025;-58
2023/06/16 10:25:02;;;;;;;6.43;2.90;;;;;;;-145.18;58.52;46908.47;5091781;28;20035;-58
2023/06/16 10:27:27;;;;;;;3.95;2.78;;;;;;;-145.18;75.67;46894.81;5073362;28;20153;-58
2023/06/16 10:29:54;;;;;;;4.28;3.25;;;;;;;-145.18;70.61;46890.91;5077672;28;20051;-58
2023/06/16 10:32:20;;;;;;;3.50;3.13;;;;;;;-145.18;62.71;46902.63;5072389;28;20032;-58
2023/06/16 10:34:56;;;;;;;4.05;3.28;;;;;;;-145.18;59.84;46916.28;5066894;28;20612;-58
2023/06/16 10:37:23;;;;;;;5.88;3.22;;;;;;;-145.18;68.07;46906.53;5087422;28;20406;-59
2023/06/16 10:39:55;;;;;;;4.47;3.13;;;;;;;-145.18;58.32;46922.16;5076929;28;20529;-58
2023/06/16 10:42:20;;;;;;;5.75;3.13;;;;;;;-145.18;59.76;46910.44;5083022;28;20033;-58
2023/06/16 10:44:45;;;;;;;4.70;2.83;;;;;;;-145.18;58.96;46887.00;5083247;28;20097;-59
2023/06/16 10:47:11;;;;;;;5.60;3.00;;;;;;;-145.18;59.40;46883.09;5088446;28;20115;-58
2023/06/16 10:49:52;;;;;;;4.47;2.88;;;;;;;-145.18;62.50;46879.19;5073164;28;20064;-59
2023/06/16 10:52:32;;;;;;;3.67;2.97;;;;;;;-145.18;65.38;46875.28;5072710;28;20387;-58
2023/06/16 10:55:17;;;;;;;3.60;3.05;;;;;;;-145.18;51.47;46898.72;5082750;28;20037;-59
2023/06/16 10:57:43;;;;;;;2.90;2.63;;;;;;;-145.18;54.52;46890.91;5085698;28;20490;-59
2023/06/16 11:00:14;;;;;;;5.80;2.72;;;;;;;-145.18;55.16;46875.28;5076183;28;20029;-58
2023/06/16 11:02:50;;;;;;;4.07;3.17;;;;;;;-145.18;49.43;46881.13;5087894;28;20024;-58
2023/06/16 11:05:18;;;;;;;4.20;2.72;;;;;;;-145.18;50.07;46887.00;5064898;28;20414;-58
2023/06/16 11:08:02;;;;;;;4.72;2.75;;;;;;;-145.18;50.81;46867.44;5088790;28;20032;-59
2023/06/16 11:10:28;;;;;;;3.55;2.72;;;;;;;-145.18;48.14;46883.09;5081743;28;20147;-58